sensor_id;sensor_type;location;lat;lon;timestamp;P1;P2;P0
52290;PMS5003;39663;45.432;28.050;2023-02-28T00:00:04;9.0;7.0;
52290;PMS5003;39663;45.432;28.050;2023-02-28T00:00:37;8.0;7.0;
52290;PMS5003;39663;45.432;28.050;2023-02-28T00:01:09;6.0;6.0;
52290;PMS5003;39663;45.432;28.050;2023-02-28T00:01:41;8.0;7.0;
52290;PMS5003;39663;45.432;28.050;2023-02-28T00:02:12;7.0;7.0;
52290;PMS5003;39663;45.432;28.050;2023-02-28T00:02:44;8.0;8.0;
52290;PMS5003;39663;45.432;28.050;2023-02-28T00:03:16;5.0;5.0;
52290;PMS5003;39663;45.432;28.050;2023-02-28T00:03:48;8.0;7.0;
52290;PMS5003;39663;45.432;28.050;2023-02-28T00:04:20;11.0;11.0;
52290;PMS5003;39663;45.432;28.050;2023-02-28T00:04:51;9.0;8.0;
52290;PMS5003;39663;45.432;28.050;2023-02-28T00:05:24;5.0;5.0;
52290;PMS5003;39663;45.432;28.050;2023-02-28T00:05:57;9.0;6.0;
52290;PMS5003;39663;45.432;28.050;2023-02-28T00:06:28;6.0;6.0;
52290;PMS5003;39663;45.432;28.050;2023-02-28T00:07:00;8.0;7.0;
52290;PMS5003;39663;45.432;28.050;2023-02-28T00:07:32;8.0;8.0;
52290;PMS5003;39663;45.432;28.050;2023-02-28T00:08:04;4.0;4.0;
52290;PMS5003;39663;45.432;28.050;2023-02-28T00:08:36;12.0;8.0;
52290;PMS5003;39663;45.432;28.050;2023-02-28T00:09:08;8.0;7.0;
52290;PMS5003;39663;45.432;28.050;2023-02-28T00:09:39;7.0;6.0;
52290;PMS5003;39663;45.432;28.050;2023-02-28T00:10:13;5.0;5.0;
52290;PMS5003;39663;45.432;28.050;2023-02-28T00:10:47;10.0;8.0;
52290;PMS5003;39663;45.432;28.050;2023-02-28T00:11:19;7.0;7.0;
52290;PMS5003;39663;45.432;28.050;2023-02-28T00:11:51;8.0;8.0;
52290;PMS5003;39663;45.432;28.050;2023-02-28T00:12:22;9.0;8.0;
52290;PMS5003;39663;45.432;28.050;2023-02-28T00:12:55;6.0;6.0;
52290;PMS5003;39663;45.432;28.050;2023-02-28T00:13:34;8.0;7.0;
52290;PMS5003;39663;45.432;28.050;2023-02-28T00:14:07;9.0;7.0;
52290;PMS5003;39663;45.432;28.050;2023-02-28T00:14:38;10.0;9.0;
52290;PMS5003;39663;45.432;28.050;2023-02-28T00:15:10;6.0;6.0;
52290;PMS5003;39663;45.432;28.050;2023-02-28T00:15:42;7.0;5.0;
52290;PMS5003;39663;45.432;28.050;2023-02-28T00:16:14;8.0;7.0;
52290;PMS5003;39663;45.432;28.050;2023-02-28T00:16:48;6.0;6.0;
52290;PMS5003;39663;45.432;28.050;2023-02-28T00:17:19;9.0;9.0;
52290;PMS5003;39663;45.432;28.050;2023-02-28T00:17:51;5.0;5.0;
52290;PMS5003;39663;45.432;28.050;2023-02-28T00:18:23;5.0;5.0;
52290;PMS5003;39663;45.432;28.050;2023-02-28T00:18:54;8.0;7.0;
52290;PMS5003;39663;45.432;28.050;2023-02-28T00:19:26;7.0;7.0;
52290;PMS5003;39663;45.432;28.050;2023-02-28T00:19:58;6.0;6.0;
52290;PMS5003;39663;45.432;28.050;2023-02-28T00:20:29;6.0;6.0;
52290;PMS5003;39663;45.432;28.050;2023-02-28T00:21:01;6.0;6.0;
52290;PMS5003;39663;45.432;28.050;2023-02-28T00:21:33;11.0;8.0;
52290;PMS5003;39663;45.432;28.050;2023-02-28T00:22:04;9.0;7.0;
52290;PMS5003;39663;45.432;28.050;2023-02-28T00:22:36;10.0;10.0;
52290;PMS5003;39663;45.432;28.050;2023-02-28T00:23:09;8.0;7.0;
52290;PMS5003;39663;45.432;28.050;2023-02-28T00:23:41;7.0;7.0;
52290;PMS5003;39663;45.432;28.050;2023-02-28T00:24:12;11.0;7.0;
52290;PMS5003;39663;45.432;28.050;2023-02-28T00:24:44;8.0;8.0;
52290;PMS5003;39663;45.432;28.050;2023-02-28T00:25:17;6.0;6.0;
52290;PMS5003;39663;45.432;28.050;2023-02-28T00:25:51;7.0;7.0;
52290;PMS5003;39663;45.432;28.050;2023-02-28T00:26:23;6.0;6.0;
52290;PMS5003;39663;45.432;28.050;2023-02-28T00:26:54;8.0;8.0;
52290;PMS5003;39663;45.432;28.050;2023-02-28T00:27:26;6.0;5.0;
52290;PMS5003;39663;45.432;28.050;2023-02-28T00:27:57;6.0;6.0;
52290;PMS5003;39663;45.432;28.050;2023-02-28T00:28:29;8.0;8.0;
52290;PMS5003;39663;45.432;28.050;2023-02-28T00:29:01;5.0;5.0;
52290;PMS5003;39663;45.432;28.050;2023-02-28T00:29:32;8.0;7.0;
52290;PMS5003;39663;45.432;28.050;2023-02-28T00:30:05;7.0;7.0;
52290;PMS5003;39663;45.432;28.050;2023-02-28T00:30:39;7.0;6.0;
52290;PMS5003;39663;45.432;28.050;2023-02-28T00:31:11;8.0;8.0;
52290;PMS5003;39663;45.432;28.050;2023-02-28T00:31:42;5.0;5.0;
52290;PMS5003;39663;45.432;28.050;2023-02-28T00:32:14;10.0;8.0;
52290;PMS5003;39663;45.432;28.050;2023-02-28T00:32:45;9.0;9.0;
52290;PMS5003;39663;45.432;28.050;2023-02-28T00:33:17;8.0;7.0;
52290;PMS5003;39663;45.432;28.050;2023-02-28T00:33:49;7.0;7.0;
52290;PMS5003;39663;45.432;28.050;2023-02-28T00:34:21;6.0;6.0;
52290;PMS5003;39663;45.432;28.050;2023-02-28T00:34:52;8.0;8.0;
52290;PMS5003;39663;45.432;28.050;2023-02-28T00:35:24;9.0;8.0;
52290;PMS5003;39663;45.432;28.050;2023-02-28T00:36:03;7.0;7.0;
52290;PMS5003;39663;45.432;28.050;2023-02-28T00:36:37;10.0;7.0;
52290;PMS5003;39663;45.432;28.050;2023-02-28T00:37:08;7.0;6.0;
52290;PMS5003;39663;45.432;28.050;2023-02-28T00:37:41;7.0;7.0;
52290;PMS5003;39663;45.432;28.050;2023-02-28T00:38:13;8.0;7.0;
52290;PMS5003;39663;45.432;28.050;2023-02-28T00:38:45;7.0;7.0;
52290;PMS5003;39663;45.432;28.050;2023-02-28T00:39:17;7.0;7.0;
52290;PMS5003;39663;45.432;28.050;2023-02-28T00:39:49;7.0;7.0;
52290;PMS5003;39663;45.432;28.050;2023-02-28T00:40:21;7.0;6.0;
52290;PMS5003;39663;45.432;28.050;2023-02-28T00:40:52;8.0;8.0;
52290;PMS5003;39663;45.432;28.050;2023-02-28T00:41:24;6.0;6.0;
52290;PMS5003;39663;45.432;28.050;2023-02-28T00:41:56;7.0;6.0;
52290;PMS5003;39663;45.432;28.050;2023-02-28T00:42:27;7.0;7.0;
52290;PMS5003;39663;45.432;28.050;2023-02-28T00:42:59;6.0;6.0;
52290;PMS5003;39663;45.432;28.050;2023-02-28T00:43:31;9.0;7.0;
52290;PMS5003;39663;45.432;28.050;2023-02-28T00:44:04;5.0;5.0;
52290;PMS5003;39663;45.432;28.050;2023-02-28T00:44:36;10.0;10.0;
52290;PMS5003;39663;45.432;28.050;2023-02-28T00:45:08;4.0;4.0;
52290;PMS5003;39663;45.432;28.050;2023-02-28T00:45:40;7.0;7.0;
52290;PMS5003;39663;45.432;28.050;2023-02-28T00:46:12;7.0;7.0;
52290;PMS5003;39663;45.432;28.050;2023-02-28T00:46:43;5.0;5.0;
52290;PMS5003;39663;45.432;28.050;2023-02-28T00:47:15;6.0;6.0;
52290;PMS5003;39663;45.432;28.050;2023-02-28T00:47:47;8.0;7.0;
52290;PMS5003;39663;45.432;28.050;2023-02-28T00:48:18;6.0;6.0;
52290;PMS5003;39663;45.432;28.050;2023-02-28T00:48:50;7.0;7.0;
52290;PMS5003;39663;45.432;28.050;2023-02-28T00:49:22;8.0;6.0;
52290;PMS5003;39663;45.432;28.050;2023-02-28T00:49:55;9.0;8.0;
52290;PMS5003;39663;45.432;28.050;2023-02-28T00:50:27;8.0;5.0;
52290;PMS5003;39663;45.432;28.050;2023-02-28T00:50:59;4.0;4.0;
52290;PMS5003;39663;45.432;28.050;2023-02-28T00:51:31;9.0;7.0;
52290;PMS5003;39663;45.432;28.050;2023-02-28T00:52:06;7.0;5.0;
52290;PMS5003;39663;45.432;28.050;2023-02-28T00:52:38;9.0;9.0;
52290;PMS5003;39663;45.432;28.050;2023-02-28T00:53:12;7.0;7.0;
52290;PMS5003;39663;45.432;28.050;2023-02-28T00:53:46;11.0;8.0;
52290;PMS5003;39663;45.432;28.050;2023-02-28T00:54:18;7.0;7.0;
52290;PMS5003;39663;45.432;28.050;2023-02-28T00:54:51;10.0;7.0;
52290;PMS5003;39663;45.432;28.050;2023-02-28T00:55:22;5.0;5.0;
52290;PMS5003;39663;45.432;28.050;2023-02-28T00:55:54;6.0;6.0;
52290;PMS5003;39663;45.432;28.050;2023-02-28T00:56:25;7.0;7.0;
52290;PMS5003;39663;45.432;28.050;2023-02-28T00:56:57;6.0;5.0;
52290;PMS5003;39663;45.432;28.050;2023-02-28T00:57:29;7.0;7.0;
52290;PMS5003;39663;45.432;28.050;2023-02-28T00:58:01;9.0;9.0;
52290;PMS5003;39663;45.432;28.050;2023-02-28T00:58:32;9.0;8.0;
52290;PMS5003;39663;45.432;28.050;2023-02-28T01:09:07;7.0;7.0;
52290;PMS5003;39663;45.432;28.050;2023-02-28T01:09:38;10.0;10.0;
52290;PMS5003;39663;45.432;28.050;2023-02-28T01:10:10;7.0;7.0;
52290;PMS5003;39663;45.432;28.050;2023-02-28T01:10:42;6.0;6.0;
52290;PMS5003;39663;45.432;28.050;2023-02-28T01:11:15;5.0;5.0;
52290;PMS5003;39663;45.432;28.050;2023-02-28T01:11:48;6.0;6.0;
52290;PMS5003;39663;45.432;28.050;2023-02-28T01:12:19;7.0;7.0;
52290;PMS5003;39663;45.432;28.050;2023-02-28T01:12:51;8.0;7.0;
52290;PMS5003;39663;45.432;28.050;2023-02-28T01:13:22;7.0;6.0;
52290;PMS5003;39663;45.432;28.050;2023-02-28T01:13:54;7.0;7.0;
52290;PMS5003;39663;45.432;28.050;2023-02-28T01:14:25;9.0;8.0;
52290;PMS5003;39663;45.432;28.050;2023-02-28T01:14:57;8.0;7.0;
52290;PMS5003;39663;45.432;28.050;2023-02-28T01:15:28;8.0;8.0;
52290;PMS5003;39663;45.432;28.050;2023-02-28T01:16:00;7.0;7.0;
52290;PMS5003;39663;45.432;28.050;2023-02-28T01:16:31;10.0;6.0;
52290;PMS5003;39663;45.432;28.050;2023-02-28T01:17:04;7.0;6.0;
52290;PMS5003;39663;45.432;28.050;2023-02-28T01:17:35;8.0;7.0;
52290;PMS5003;39663;45.432;28.050;2023-02-28T01:18:07;6.0;6.0;
52290;PMS5003;39663;45.432;28.050;2023-02-28T01:18:38;8.0;7.0;
52290;PMS5003;39663;45.432;28.050;2023-02-28T01:19:10;9.0;9.0;
52290;PMS5003;39663;45.432;28.050;2023-02-28T01:19:42;8.0;7.0;
52290;PMS5003;39663;45.432;28.050;2023-02-28T01:20:13;5.0;5.0;
52290;PMS5003;39663;45.432;28.050;2023-02-28T01:20:45;9.0;7.0;
52290;PMS5003;39663;45.432;28.050;2023-02-28T01:21:17;6.0;6.0;
52290;PMS5003;39663;45.432;28.050;2023-02-28T01:21:51;6.0;6.0;
52290;PMS5003;39663;45.432;28.050;2023-02-28T01:22:22;8.0;7.0;
52290;PMS5003;39663;45.432;28.050;2023-02-28T01:22:53;8.0;7.0;
52290;PMS5003;39663;45.432;28.050;2023-02-28T01:23:25;7.0;7.0;
52290;PMS5003;39663;45.432;28.050;2023-02-28T01:23:57;11.0;9.0;
52290;PMS5003;39663;45.432;28.050;2023-02-28T01:24:28;9.0;9.0;
52290;PMS5003;39663;45.432;28.050;2023-02-28T01:25:00;7.0;6.0;
52290;PMS5003;39663;45.432;28.050;2023-02-28T01:25:34;5.0;5.0;
52290;PMS5003;39663;45.432;28.050;2023-02-28T01:26:06;7.0;6.0;
52290;PMS5003;39663;45.432;28.050;2023-02-28T01:26:38;7.0;5.0;
52290;PMS5003;39663;45.432;28.050;2023-02-28T01:27:10;7.0;6.0;
52290;PMS5003;39663;45.432;28.050;2023-02-28T01:27:41;8.0;8.0;
52290;PMS5003;39663;45.432;28.050;2023-02-28T01:28:13;6.0;6.0;
52290;PMS5003;39663;45.432;28.050;2023-02-28T01:28:45;10.0;9.0;
52290;PMS5003;39663;45.432;28.050;2023-02-28T01:29:17;8.0;5.0;
52290;PMS5003;39663;45.432;28.050;2023-02-28T01:29:50;7.0;6.0;
52290;PMS5003;39663;45.432;28.050;2023-02-28T01:30:21;9.0;7.0;
52290;PMS5003;39663;45.432;28.050;2023-02-28T01:30:53;6.0;6.0;
52290;PMS5003;39663;45.432;28.050;2023-02-28T01:31:24;8.0;5.0;
52290;PMS5003;39663;45.432;28.050;2023-02-28T01:31:56;6.0;6.0;
52290;PMS5003;39663;45.432;28.050;2023-02-28T01:32:27;7.0;7.0;
52290;PMS5003;39663;45.432;28.050;2023-02-28T01:32:59;8.0;8.0;
52290;PMS5003;39663;45.432;28.050;2023-02-28T01:33:31;6.0;5.0;
52290;PMS5003;39663;45.432;28.050;2023-02-28T01:34:03;6.0;6.0;
52290;PMS5003;39663;45.432;28.050;2023-02-28T01:34:35;7.0;7.0;
52290;PMS5003;39663;45.432;28.050;2023-02-28T01:35:07;8.0;8.0;
52290;PMS5003;39663;45.432;28.050;2023-02-28T01:35:38;7.0;7.0;
52290;PMS5003;39663;45.432;28.050;2023-02-28T01:36:10;7.0;7.0;
52290;PMS5003;39663;45.432;28.050;2023-02-28T01:36:43;6.0;6.0;
52290;PMS5003;39663;45.432;28.050;2023-02-28T01:37:15;9.0;9.0;
52290;PMS5003;39663;45.432;28.050;2023-02-28T01:37:46;7.0;5.0;
52290;PMS5003;39663;45.432;28.050;2023-02-28T01:38:17;6.0;6.0;
52290;PMS5003;39663;45.432;28.050;2023-02-28T01:38:49;6.0;6.0;
52290;PMS5003;39663;45.432;28.050;2023-02-28T01:39:21;7.0;7.0;
52290;PMS5003;39663;45.432;28.050;2023-02-28T01:39:52;7.0;7.0;
52290;PMS5003;39663;45.432;28.050;2023-02-28T01:40:23;8.0;5.0;
52290;PMS5003;39663;45.432;28.050;2023-02-28T01:40:55;6.0;5.0;
52290;PMS5003;39663;45.432;28.050;2023-02-28T01:41:28;6.0;5.0;
52290;PMS5003;39663;45.432;28.050;2023-02-28T01:42:01;7.0;7.0;
52290;PMS5003;39663;45.432;28.050;2023-02-28T01:42:33;9.0;7.0;
52290;PMS5003;39663;45.432;28.050;2023-02-28T01:43:07;6.0;6.0;
52290;PMS5003;39663;45.432;28.050;2023-02-28T01:43:53;6.0;6.0;
52290;PMS5003;39663;45.432;28.050;2023-02-28T01:45:03;8.0;6.0;
52290;PMS5003;39663;45.432;28.050;2023-02-28T01:45:37;7.0;7.0;
52290;PMS5003;39663;45.432;28.050;2023-02-28T01:46:09;6.0;6.0;
52290;PMS5003;39663;45.432;28.050;2023-02-28T01:46:41;5.0;5.0;
52290;PMS5003;39663;45.432;28.050;2023-02-28T01:47:13;4.0;4.0;
52290;PMS5003;39663;45.432;28.050;2023-02-28T01:47:45;7.0;7.0;
52290;PMS5003;39663;45.432;28.050;2023-02-28T01:48:18;9.0;7.0;
52290;PMS5003;39663;45.432;28.050;2023-02-28T01:48:54;5.0;5.0;
52290;PMS5003;39663;45.432;28.050;2023-02-28T01:49:32;7.0;6.0;
52290;PMS5003;39663;45.432;28.050;2023-02-28T01:50:06;6.0;6.0;
52290;PMS5003;39663;45.432;28.050;2023-02-28T01:50:43;7.0;6.0;
52290;PMS5003;39663;45.432;28.050;2023-02-28T01:51:18;8.0;8.0;
52290;PMS5003;39663;45.432;28.050;2023-02-28T01:51:53;9.0;7.0;
52290;PMS5003;39663;45.432;28.050;2023-02-28T01:52:27;7.0;7.0;
52290;PMS5003;39663;45.432;28.050;2023-02-28T01:52:59;6.0;6.0;
52290;PMS5003;39663;45.432;28.050;2023-02-28T01:53:37;7.0;7.0;
52290;PMS5003;39663;45.432;28.050;2023-02-28T01:54:14;7.0;7.0;
52290;PMS5003;39663;45.432;28.050;2023-02-28T01:54:50;9.0;7.0;
52290;PMS5003;39663;45.432;28.050;2023-02-28T01:55:24;9.0;9.0;
52290;PMS5003;39663;45.432;28.050;2023-02-28T01:55:58;9.0;7.0;
52290;PMS5003;39663;45.432;28.050;2023-02-28T01:56:32;9.0;8.0;
52290;PMS5003;39663;45.432;28.050;2023-02-28T01:57:09;10.0;9.0;
52290;PMS5003;39663;45.432;28.050;2023-02-28T01:57:45;8.0;8.0;
52290;PMS5003;39663;45.432;28.050;2023-02-28T01:58:21;12.0;11.0;
52290;PMS5003;39663;45.432;28.050;2023-02-28T01:58:53;10.0;8.0;
52290;PMS5003;39663;45.432;28.050;2023-02-28T01:59:27;8.0;7.0;
52290;PMS5003;39663;45.432;28.050;2023-02-28T02:00:05;9.0;8.0;
52290;PMS5003;39663;45.432;28.050;2023-02-28T02:00:39;7.0;7.0;
52290;PMS5003;39663;45.432;28.050;2023-02-28T02:01:10;9.0;9.0;
52290;PMS5003;39663;45.432;28.050;2023-02-28T02:01:42;8.0;7.0;
52290;PMS5003;39663;45.432;28.050;2023-02-28T02:02:14;7.0;7.0;
52290;PMS5003;39663;45.432;28.050;2023-02-28T02:02:48;6.0;6.0;
52290;PMS5003;39663;45.432;28.050;2023-02-28T02:03:23;7.0;6.0;
52290;PMS5003;39663;45.432;28.050;2023-02-28T02:03:56;7.0;6.0;
52290;PMS5003;39663;45.432;28.050;2023-02-28T02:04:32;10.0;8.0;
52290;PMS5003;39663;45.432;28.050;2023-02-28T02:05:12;8.0;7.0;
52290;PMS5003;39663;45.432;28.050;2023-02-28T02:05:47;11.0;11.0;
52290;PMS5003;39663;45.432;28.050;2023-02-28T02:06:18;7.0;7.0;
52290;PMS5003;39663;45.432;28.050;2023-02-28T02:06:50;7.0;7.0;
52290;PMS5003;39663;45.432;28.050;2023-02-28T02:07:22;8.0;8.0;
52290;PMS5003;39663;45.432;28.050;2023-02-28T02:07:56;7.0;7.0;
52290;PMS5003;39663;45.432;28.050;2023-02-28T02:08:32;8.0;8.0;
52290;PMS5003;39663;45.432;28.050;2023-02-28T02:09:03;12.0;9.0;
52290;PMS5003;39663;45.432;28.050;2023-02-28T02:09:35;12.0;12.0;
52290;PMS5003;39663;45.432;28.050;2023-02-28T02:10:11;9.0;9.0;
52290;PMS5003;39663;45.432;28.050;2023-02-28T02:10:46;9.0;9.0;
52290;PMS5003;39663;45.432;28.050;2023-02-28T02:11:20;12.0;8.0;
52290;PMS5003;39663;45.432;28.050;2023-02-28T02:11:55;8.0;8.0;
52290;PMS5003;39663;45.432;28.050;2023-02-28T02:12:27;7.0;6.0;
52290;PMS5003;39663;45.432;28.050;2023-02-28T02:13:13;6.0;6.0;
52290;PMS5003;39663;45.432;28.050;2023-02-28T02:14:01;5.0;5.0;
52290;PMS5003;39663;45.432;28.050;2023-02-28T02:14:43;9.0;7.0;
52290;PMS5003;39663;45.432;28.050;2023-02-28T02:15:30;8.0;8.0;
52290;PMS5003;39663;45.432;28.050;2023-02-28T02:16:06;8.0;6.0;
52290;PMS5003;39663;45.432;28.050;2023-02-28T02:16:50;8.0;8.0;
52290;PMS5003;39663;45.432;28.050;2023-02-28T02:17:32;8.0;8.0;
52290;PMS5003;39663;45.432;28.050;2023-02-28T02:18:10;7.0;7.0;
52290;PMS5003;39663;45.432;28.050;2023-02-28T02:18:53;10.0;9.0;
52290;PMS5003;39663;45.432;28.050;2023-02-28T02:19:36;11.0;11.0;
52290;PMS5003;39663;45.432;28.050;2023-02-28T02:20:40;10.0;10.0;
52290;PMS5003;39663;45.432;28.050;2023-02-28T02:22:09;9.0;9.0;
52290;PMS5003;39663;45.432;28.050;2023-02-28T02:24:11;13.0;12.0;
52290;PMS5003;39663;45.432;28.050;2023-02-28T02:25:34;12.0;10.0;
52290;PMS5003;39663;45.432;28.050;2023-02-28T02:26:34;10.0;9.0;
52290;PMS5003;39663;45.432;28.050;2023-02-28T02:27:22;10.0;10.0;
52290;PMS5003;39663;45.432;28.050;2023-02-28T02:28:09;9.0;8.0;
52290;PMS5003;39663;45.432;28.050;2023-02-28T02:29:37;13.0;9.0;
52290;PMS5003;39663;45.432;28.050;2023-02-28T02:31:16;8.0;8.0;
52290;PMS5003;39663;45.432;28.050;2023-02-28T02:32:09;12.0;10.0;
52290;PMS5003;39663;45.432;28.050;2023-02-28T02:33:03;10.0;10.0;
52290;PMS5003;39663;45.432;28.050;2023-02-28T02:34:12;10.0;10.0;
52290;PMS5003;39663;45.432;28.050;2023-02-28T02:35:26;8.0;7.0;
52290;PMS5003;39663;45.432;28.050;2023-02-28T02:36:02;11.0;8.0;
52290;PMS5003;39663;45.432;28.050;2023-02-28T02:36:44;11.0;10.0;
52290;PMS5003;39663;45.432;28.050;2023-02-28T02:37:24;13.0;12.0;
52290;PMS5003;39663;45.432;28.050;2023-02-28T02:38:01;9.0;9.0;
52290;PMS5003;39663;45.432;28.050;2023-02-28T02:38:39;9.0;8.0;
52290;PMS5003;39663;45.432;28.050;2023-02-28T02:39:19;8.0;8.0;
52290;PMS5003;39663;45.432;28.050;2023-02-28T02:40:02;7.0;7.0;
52290;PMS5003;39663;45.432;28.050;2023-02-28T02:40:42;7.0;7.0;
52290;PMS5003;39663;45.432;28.050;2023-02-28T02:41:23;9.0;9.0;
52290;PMS5003;39663;45.432;28.050;2023-02-28T02:41:59;9.0;8.0;
52290;PMS5003;39663;45.432;28.050;2023-02-28T02:42:36;8.0;8.0;
52290;PMS5003;39663;45.432;28.050;2023-02-28T02:43:13;9.0;7.0;
52290;PMS5003;39663;45.432;28.050;2023-02-28T02:43:51;8.0;8.0;
52290;PMS5003;39663;45.432;28.050;2023-02-28T02:44:27;10.0;9.0;
52290;PMS5003;39663;45.432;28.050;2023-02-28T02:45:03;8.0;8.0;
52290;PMS5003;39663;45.432;28.050;2023-02-28T02:45:42;11.0;11.0;
52290;PMS5003;39663;45.432;28.050;2023-02-28T02:46:17;10.0;10.0;
52290;PMS5003;39663;45.432;28.050;2023-02-28T02:46:53;9.0;9.0;
52290;PMS5003;39663;45.432;28.050;2023-02-28T02:47:30;9.0;9.0;
52290;PMS5003;39663;45.432;28.050;2023-02-28T02:48:03;7.0;7.0;
52290;PMS5003;39663;45.432;28.050;2023-02-28T02:48:40;11.0;10.0;
52290;PMS5003;39663;45.432;28.050;2023-02-28T02:49:15;7.0;7.0;
52290;PMS5003;39663;45.432;28.050;2023-02-28T02:49:51;9.0;9.0;
52290;PMS5003;39663;45.432;28.050;2023-02-28T02:50:26;11.0;9.0;
52290;PMS5003;39663;45.432;28.050;2023-02-28T02:51:04;8.0;8.0;
52290;PMS5003;39663;45.432;28.050;2023-02-28T02:51:41;11.0;9.0;
52290;PMS5003;39663;45.432;28.050;2023-02-28T02:52:14;11.0;11.0;
52290;PMS5003;39663;45.432;28.050;2023-02-28T02:52:50;9.0;9.0;
52290;PMS5003;39663;45.432;28.050;2023-02-28T02:53:28;11.0;9.0;
52290;PMS5003;39663;45.432;28.050;2023-02-28T02:54:04;14.0;13.0;
52290;PMS5003;39663;45.432;28.050;2023-02-28T02:54:40;8.0;8.0;
52290;PMS5003;39663;45.432;28.050;2023-02-28T02:55:14;10.0;10.0;
52290;PMS5003;39663;45.432;28.050;2023-02-28T02:55:49;10.0;7.0;
52290;PMS5003;39663;45.432;28.050;2023-02-28T02:56:24;15.0;14.0;
52290;PMS5003;39663;45.432;28.050;2023-02-28T02:57:06;10.0;9.0;
52290;PMS5003;39663;45.432;28.050;2023-02-28T02:57:42;8.0;7.0;
52290;PMS5003;39663;45.432;28.050;2023-02-28T02:58:18;15.0;15.0;
52290;PMS5003;39663;45.432;28.050;2023-02-28T02:58:57;12.0;10.0;
52290;PMS5003;39663;45.432;28.050;2023-02-28T02:59:31;11.0;10.0;
52290;PMS5003;39663;45.432;28.050;2023-02-28T03:00:05;10.0;7.0;
52290;PMS5003;39663;45.432;28.050;2023-02-28T03:00:40;11.0;9.0;
52290;PMS5003;39663;45.432;28.050;2023-02-28T03:01:17;8.0;8.0;
52290;PMS5003;39663;45.432;28.050;2023-02-28T03:01:51;9.0;8.0;
52290;PMS5003;39663;45.432;28.050;2023-02-28T03:02:27;11.0;9.0;
52290;PMS5003;39663;45.432;28.050;2023-02-28T03:03:01;9.0;9.0;
52290;PMS5003;39663;45.432;28.050;2023-02-28T03:03:33;9.0;9.0;
52290;PMS5003;39663;45.432;28.050;2023-02-28T03:04:07;12.0;11.0;
52290;PMS5003;39663;45.432;28.050;2023-02-28T03:04:42;11.0;10.0;
52290;PMS5003;39663;45.432;28.050;2023-02-28T03:05:19;11.0;10.0;
52290;PMS5003;39663;45.432;28.050;2023-02-28T03:05:54;13.0;12.0;
52290;PMS5003;39663;45.432;28.050;2023-02-28T03:06:27;11.0;11.0;
52290;PMS5003;39663;45.432;28.050;2023-02-28T03:06:58;11.0;10.0;
52290;PMS5003;39663;45.432;28.050;2023-02-28T03:07:30;11.0;11.0;
52290;PMS5003;39663;45.432;28.050;2023-02-28T03:08:03;15.0;15.0;
52290;PMS5003;39663;45.432;28.050;2023-02-28T03:08:35;12.0;12.0;
52290;PMS5003;39663;45.432;28.050;2023-02-28T03:09:08;14.0;12.0;
52290;PMS5003;39663;45.432;28.050;2023-02-28T03:09:39;16.0;16.0;
52290;PMS5003;39663;45.432;28.050;2023-02-28T03:10:28;13.0;13.0;
52290;PMS5003;39663;45.432;28.050;2023-02-28T03:11:03;12.0;11.0;
52290;PMS5003;39663;45.432;28.050;2023-02-28T03:11:36;16.0;15.0;
52290;PMS5003;39663;45.432;28.050;2023-02-28T03:12:10;11.0;11.0;
52290;PMS5003;39663;45.432;28.050;2023-02-28T03:12:46;12.0;12.0;
52290;PMS5003;39663;45.432;28.050;2023-02-28T03:13:27;9.0;9.0;
52290;PMS5003;39663;45.432;28.050;2023-02-28T03:14:43;13.0;10.0;
52290;PMS5003;39663;45.432;28.050;2023-02-28T03:15:27;16.0;12.0;
52290;PMS5003;39663;45.432;28.050;2023-02-28T03:16:29;10.0;10.0;
52290;PMS5003;39663;45.432;28.050;2023-02-28T03:17:12;9.0;9.0;
52290;PMS5003;39663;45.432;28.050;2023-02-28T03:18:01;12.0;12.0;
52290;PMS5003;39663;45.432;28.050;2023-02-28T03:18:40;16.0;12.0;
52290;PMS5003;39663;45.432;28.050;2023-02-28T03:19:25;10.0;10.0;
52290;PMS5003;39663;45.432;28.050;2023-02-28T03:20:07;12.0;12.0;
52290;PMS5003;39663;45.432;28.050;2023-02-28T03:20:47;11.0;9.0;
52290;PMS5003;39663;45.432;28.050;2023-02-28T03:21:28;10.0;10.0;
52290;PMS5003;39663;45.432;28.050;2023-02-28T03:22:10;13.0;10.0;
52290;PMS5003;39663;45.432;28.050;2023-02-28T03:22:56;11.0;10.0;
52290;PMS5003;39663;45.432;28.050;2023-02-28T03:23:37;14.0;13.0;
52290;PMS5003;39663;45.432;28.050;2023-02-28T03:24:14;12.0;12.0;
52290;PMS5003;39663;45.432;28.050;2023-02-28T03:24:54;10.0;8.0;
52290;PMS5003;39663;45.432;28.050;2023-02-28T03:25:37;14.0;11.0;
52290;PMS5003;39663;45.432;28.050;2023-02-28T03:26:17;10.0;9.0;
52290;PMS5003;39663;45.432;28.050;2023-02-28T03:26:54;19.0;17.0;
52290;PMS5003;39663;45.432;28.050;2023-02-28T03:27:29;11.0;10.0;
52290;PMS5003;39663;45.432;28.050;2023-02-28T03:28:07;10.0;10.0;
52290;PMS5003;39663;45.432;28.050;2023-02-28T03:28:46;13.0;13.0;
52290;PMS5003;39663;45.432;28.050;2023-02-28T03:29:26;10.0;9.0;
52290;PMS5003;39663;45.432;28.050;2023-02-28T03:30:04;11.0;11.0;
52290;PMS5003;39663;45.432;28.050;2023-02-28T03:30:42;15.0;12.0;
52290;PMS5003;39663;45.432;28.050;2023-02-28T03:31:19;12.0;11.0;
52290;PMS5003;39663;45.432;28.050;2023-02-28T03:31:56;12.0;12.0;
52290;PMS5003;39663;45.432;28.050;2023-02-28T03:32:34;12.0;11.0;
52290;PMS5003;39663;45.432;28.050;2023-02-28T03:33:10;11.0;11.0;
52290;PMS5003;39663;45.432;28.050;2023-02-28T03:33:46;14.0;14.0;
52290;PMS5003;39663;45.432;28.050;2023-02-28T03:34:24;10.0;10.0;
52290;PMS5003;39663;45.432;28.050;2023-02-28T03:35:00;12.0;12.0;
52290;PMS5003;39663;45.432;28.050;2023-02-28T03:35:37;14.0;11.0;
52290;PMS5003;39663;45.432;28.050;2023-02-28T03:36:12;11.0;10.0;
52290;PMS5003;39663;45.432;28.050;2023-02-28T03:36:49;13.0;13.0;
52290;PMS5003;39663;45.432;28.050;2023-02-28T03:37:24;13.0;13.0;
52290;PMS5003;39663;45.432;28.050;2023-02-28T03:38:00;11.0;11.0;
52290;PMS5003;39663;45.432;28.050;2023-02-28T03:38:37;12.0;12.0;
52290;PMS5003;39663;45.432;28.050;2023-02-28T03:39:14;12.0;10.0;
52290;PMS5003;39663;45.432;28.050;2023-02-28T03:39:51;11.0;10.0;
52290;PMS5003;39663;45.432;28.050;2023-02-28T03:40:30;14.0;13.0;
52290;PMS5003;39663;45.432;28.050;2023-02-28T03:41:06;9.0;9.0;
52290;PMS5003;39663;45.432;28.050;2023-02-28T03:41:43;13.0;11.0;
52290;PMS5003;39663;45.432;28.050;2023-02-28T03:42:20;12.0;11.0;
52290;PMS5003;39663;45.432;28.050;2023-02-28T03:42:56;14.0;13.0;
52290;PMS5003;39663;45.432;28.050;2023-02-28T03:43:33;12.0;11.0;
52290;PMS5003;39663;45.432;28.050;2023-02-28T03:44:11;14.0;12.0;
52290;PMS5003;39663;45.432;28.050;2023-02-28T03:44:48;12.0;9.0;
52290;PMS5003;39663;45.432;28.050;2023-02-28T03:45:23;13.0;11.0;
52290;PMS5003;39663;45.432;28.050;2023-02-28T03:45:57;13.0;11.0;
52290;PMS5003;39663;45.432;28.050;2023-02-28T03:46:33;10.0;10.0;
52290;PMS5003;39663;45.432;28.050;2023-02-28T03:47:09;11.0;11.0;
52290;PMS5003;39663;45.432;28.050;2023-02-28T03:47:46;11.0;11.0;
52290;PMS5003;39663;45.432;28.050;2023-02-28T03:48:23;11.0;11.0;
52290;PMS5003;39663;45.432;28.050;2023-02-28T03:49:02;8.0;8.0;
52290;PMS5003;39663;45.432;28.050;2023-02-28T03:49:40;17.0;15.0;
52290;PMS5003;39663;45.432;28.050;2023-02-28T03:50:17;16.0;13.0;
52290;PMS5003;39663;45.432;28.050;2023-02-28T03:50:53;12.0;12.0;
52290;PMS5003;39663;45.432;28.050;2023-02-28T03:51:26;17.0;17.0;
52290;PMS5003;39663;45.432;28.050;2023-02-28T03:52:00;11.0;11.0;
52290;PMS5003;39663;45.432;28.050;2023-02-28T03:52:37;9.0;9.0;
52290;PMS5003;39663;45.432;28.050;2023-02-28T03:53:16;15.0;13.0;
52290;PMS5003;39663;45.432;28.050;2023-02-28T03:53:52;14.0;12.0;
52290;PMS5003;39663;45.432;28.050;2023-02-28T03:54:27;9.0;9.0;
52290;PMS5003;39663;45.432;28.050;2023-02-28T03:55:03;12.0;12.0;
52290;PMS5003;39663;45.432;28.050;2023-02-28T03:55:42;12.0;12.0;